Time;durP1;ratioP1;P1;durP2;ratioP2;P2;SDS_P1;SDS_P2;PMS_P1;PMS_P2;Temp;Humidity;BMP_temperature;BMP_pressure;BME280_temperature;BME280_humidity;BME280_pressure;Samples;Min_cycle;Max_cycle;Signal;HPM_P1;HPM_P2
2023/10/06 00:01:44;;;;;;;12.50;6.20;;;;;;;;;;5020646;28;20049;-77
2023/10/06 00:04:10;;;;;;;11.68;5.15;;;;;;;;;;5008569;28;20056;-76
2023/10/06 00:06:41;;;;;;;10.43;4.75;;;;;;;;;;5023980;28;20030;-77
2023/10/06 00:09:08;;;;;;;12.60;4.93;;;;;;;;;;5025636;28;20076;-76
2023/10/06 00:11:35;;;;;;;14.43;5.22;;;;;;;;;;5025063;28;20025;-76
2023/10/06 00:14:01;;;;;;;14.63;5.30;;;;;;;;;;5006954;28;20045;-77
2023/10/06 00:16:39;;;;;;;9.93;5.60;;;;;;;;;;5026842;28;20033;-77
2023/10/06 00:19:26;;;;;;;13.27;5.95;;;;;;;;;;5023123;28;20076;-77
2023/10/06 00:22:03;;;;;;;10.32;5.70;;;;;;;;;;5028755;28;20125;-76
2023/10/06 00:24:31;;;;;;;8.05;5.47;;;;;;;;;;5020350;28;20041;-76
2023/10/06 00:26:57;;;;;;;8.90;5.50;;;;;;;;;;5026394;28;20036;-76
2023/10/06 00:29:23;;;;;;;10.70;5.15;;;;;;;;;;5006160;28;20116;-75
2023/10/06 00:31:48;;;;;;;7.07;4.13;;;;;;;;;;5026238;28;20125;-76
2023/10/06 00:34:20;;;;;;;9.27;5.00;;;;;;;;;;5024224;28;20029;-76
2023/10/06 00:36:52;;;;;;;12.80;5.53;;;;;;;;;;5024682;28;20045;-76
2023/10/06 00:39:24;;;;;;;37.22;5.60;;;;;;;;;;5018958;28;20167;-75
2023/10/06 00:41:56;;;;;;;171.75;8.65;;;;;;;;;;5025195;28;20028;-76
2023/10/06 00:44:24;;;;;;;287.85;20.15;;;;;;;;;;5021358;28;20028;-76
2023/10/06 00:46:50;;;;;;;121.32;12.25;;;;;;;;;;5018645;28;20388;-75
2023/10/06 00:49:18;;;;;;;98.43;11.50;;;;;;;;;;5021534;28;20025;-76
2023/10/06 00:51:44;;;;;;;20.05;9.98;;;;;;;;;;5020970;28;20121;-76
2023/10/06 00:54:09;;;;;;;108.22;14.30;;;;;;;;;;5022808;28;20025;-76
2023/10/06 00:56:34;;;;;;;17.80;9.18;;;;;;;;;;5020326;28;20550;-76
2023/10/06 00:59:04;;;;;;;45.33;11.82;;;;;;;;;;5024247;28;20571;-76
2023/10/06 01:01:29;;;;;;;14.77;7.90;;;;;;;;;;5016963;28;20113;-76
2023/10/06 01:04:01;;;;;;;22.85;7.18;;;;;;;;;;5024617;28;20121;-75
2023/10/06 01:06:33;;;;;;;13.63;7.72;;;;;;;;;;5025381;28;20307;-76
2023/10/06 01:09:18;;;;;;;11.77;7.55;;;;;;;;;;5005167;28;20223;-76
2023/10/06 01:11:46;;;;;;;12.95;6.78;;;;;;;;;;5018603;28;20124;-76
2023/10/06 01:14:14;;;;;;;21.02;8.43;;;;;;;;;;5021641;28;20046;-77
2023/10/06 01:16:42;;;;;;;23.63;8.57;;;;;;;;;;5023030;28;20087;-75
2023/10/06 01:19:14;;;;;;;15.20;7.53;;;;;;;;;;5020314;28;20056;-76
2023/10/06 01:21:53;;;;;;;19.67;7.80;;;;;;;;;;5021688;28;20564;-76
2023/10/06 01:24:25;;;;;;;12.23;6.93;;;;;;;;;;5023525;28;20051;-76
2023/10/06 01:27:05;;;;;;;14.88;7.55;;;;;;;;;;5025388;28;20028;-76
2023/10/06 01:29:31;;;;;;;29.02;8.00;;;;;;;;;;5023913;28;20121;-76
2023/10/06 01:31:57;;;;;;;17.08;7.68;;;;;;;;;;5022298;28;20119;-75
2023/10/06 01:34:24;;;;;;;54.83;11.00;;;;;;;;;;5005023;28;20044;-76
2023/10/06 01:36:52;;;;;;;32.25;10.63;;;;;;;;;;5002579;28;20041;-76
2023/10/06 01:39:18;;;;;;;17.92;9.75;;;;;;;;;;5007691;28;20037;-76
2023/10/06 01:41:47;;;;;;;30.40;11.32;;;;;;;;;;5006091;28;20461;-77
2023/10/06 01:44:16;;;;;;;36.20;12.00;;;;;;;;;;5020568;28;20104;-77
2023/10/06 01:46:43;;;;;;;31.17;11.65;;;;;;;;;;5032753;28;20029;-78
2023/10/06 01:49:14;;;;;;;26.65;11.30;;;;;;;;;;5038821;28;20037;-77
2023/10/06 01:51:40;;;;;;;27.83;10.52;;;;;;;;;;5035051;28;20033;-77
2023/10/06 01:54:07;;;;;;;21.02;10.30;;;;;;;;;;5020327;28;20074;-80
2023/10/06 01:56:36;;;;;;;23.17;11.77;;;;;;;;;;5017384;28;20033;-79
2023/10/06 01:59:04;;;;;;;33.03;11.60;;;;;;;;;;5007119;28;20049;-78
2023/10/06 02:01:29;;;;;;;30.58;10.90;;;;;;;;;;5033341;28;20048;-80
2023/10/06 02:03:54;;;;;;;21.98;9.88;;;;;;;;;;5023728;28;20037;-78
2023/10/06 02:06:20;;;;;;;24.10;9.43;;;;;;;;;;5038184;28;20029;-79
2023/10/06 02:08:52;;;;;;;16.35;8.93;;;;;;;;;;5033007;28;20021;-79
2023/10/06 02:11:20;;;;;;;18.45;7.80;;;;;;;;;;5037973;28;20030;-79
2023/10/06 02:13:46;;;;;;;14.07;7.13;;;;;;;;;;5034466;28;20034;-79
2023/10/06 02:16:11;;;;;;;27.77;7.78;;;;;;;;;;5040560;28;20408;-79
2023/10/06 02:18:37;;;;;;;184.13;16.08;;;;;;;;;;5023212;28;20034;-78
2023/10/06 02:21:10;;;;;;;15.15;8.07;;;;;;;;;;5028090;28;20032;-79
2023/10/06 02:23:40;;;;;;;12.30;6.85;;;;;;;;;;5025969;28;20042;-79
2023/10/06 02:26:09;;;;;;;16.02;7.38;;;;;;;;;;5022584;28;20044;-80
2023/10/06 02:28:40;;;;;;;13.43;6.35;;;;;;;;;;5023332;28;20029;-79
2023/10/06 02:31:06;;;;;;;24.75;7.93;;;;;;;;;;5024518;28;20034;-78
2023/10/06 02:33:36;;;;;;;17.15;7.93;;;;;;;;;;5026972;28;20121;-82
2023/10/06 02:36:13;;;;;;;139.23;13.40;;;;;;;;;;5022943;28;20450;-77
2023/10/06 02:38:46;;;;;;;495.70;34.42;;;;;;;;;;5020143;28;20046;-77
2023/10/06 02:41:11;;;;;;;20.60;7.85;;;;;;;;;;5016203;28;20038;-80
2023/10/06 02:43:40;;;;;;;42.55;8.73;;;;;;;;;;5016954;28;20037;-77
2023/10/06 02:46:08;;;;;;;24.00;9.00;;;;;;;;;;5023457;28;20060;-75
2023/10/06 02:48:34;;;;;;;113.47;11.98;;;;;;;;;;5025219;28;20042;-77
2023/10/06 02:51:01;;;;;;;18.15;8.18;;;;;;;;;;5027536;28;20401;-78
2023/10/06 02:53:29;;;;;;;52.15;9.88;;;;;;;;;;5031476;28;20030;-80
2023/10/06 02:56:05;;;;;;;16.10;8.55;;;;;;;;;;5035404;28;20033;-77
2023/10/06 02:58:32;;;;;;;19.08;8.05;;;;;;;;;;5034514;28;20033;-79
2023/10/06 03:00:58;;;;;;;19.65;8.23;;;;;;;;;;5013937;28;20033;-76
2023/10/06 03:03:33;;;;;;;17.52;7.72;;;;;;;;;;5027489;28;20504;-76
2023/10/06 03:05:58;;;;;;;15.23;7.57;;;;;;;;;;5021426;28;20398;-78
2023/10/06 03:08:29;;;;;;;19.05;7.45;;;;;;;;;;5022325;28;20379;-78
2023/10/06 03:10:55;;;;;;;122.28;12.88;;;;;;;;;;5031103;28;20034;-77
2023/10/06 03:13:32;;;;;;;18.00;8.15;;;;;;;;;;5026475;28;20060;-77
2023/10/06 03:15:59;;;;;;;23.08;8.25;;;;;;;;;;5029396;28;20111;-77
2023/10/06 03:18:25;;;;;;;18.63;8.65;;;;;;;;;;5033111;28;20042;-79
2023/10/06 03:20:53;;;;;;;19.00;8.60;;;;;;;;;;5030781;28;20014;-78
2023/10/06 03:25:56;;;;;;;147.90;14.27;;;;;;;;;;5037502;28;20041;-78
2023/10/06 03:28:28;;;;;;;82.93;10.73;;;;;;;;;;5020494;28;20125;-77
2023/10/06 03:30:53;;;;;;;17.45;9.02;;;;;;;;;;5032938;28;20033;-77
2023/10/06 03:33:23;;;;;;;78.97;12.43;;;;;;;;;;5025487;28;20032;-77
2023/10/06 03:35:48;;;;;;;22.88;8.90;;;;;;;;;;5034302;28;20222;-77
2023/10/06 03:40:48;;;;;;;16.23;8.50;;;;;;;;;;5041269;28;20053;-77
2023/10/06 03:43:13;;;;;;;23.35;7.78;;;;;;;;;;5024780;28;20041;-78
2023/10/06 03:45:40;;;;;;;15.43;7.30;;;;;;;;;;5024898;28;20044;-77
2023/10/06 03:48:11;;;;;;;12.43;5.50;;;;;;;;;;5042682;28;20087;-78
2023/10/06 03:50:38;;;;;;;17.83;6.60;;;;;;;;;;5036374;28;20072;-77
2023/10/06 03:53:07;;;;;;;8.38;5.70;;;;;;;;;;5042055;28;20034;-76
2023/10/06 03:55:39;;;;;;;15.32;6.50;;;;;;;;;;5024179;28;20029;-78
2023/10/06 03:58:06;;;;;;;8.75;5.93;;;;;;;;;;5036215;28;20493;-79
2023/10/06 04:00:38;;;;;;;14.88;7.38;;;;;;;;;;5038050;28;20033;-78
2023/10/06 04:03:09;;;;;;;18.60;10.30;;;;;;;;;;5041039;28;20027;-77
2023/10/06 04:05:37;;;;;;;27.70;12.38;;;;;;;;;;5024400;28;20049;-76
2023/10/06 04:08:15;;;;;;;38.95;11.95;;;;;;;;;;5021790;28;20073;-77
2023/10/06 04:10:42;;;;;;;56.85;11.80;;;;;;;;;;5013539;28;20087;-77
2023/10/06 04:13:10;;;;;;;36.13;11.10;;;;;;;;;;5018294;28;20505;-78
2023/10/06 04:15:43;;;;;;;127.70;11.85;;;;;;;;;;5023430;28;20038;-78
2023/10/06 04:18:10;;;;;;;344.88;25.75;;;;;;;;;;5027352;28;20079;-77
2023/10/06 04:20:40;;;;;;;526.05;33.58;;;;;;;;;;5022876;28;20026;-78
2023/10/06 04:23:06;;;;;;;125.00;13.60;;;;;;;;;;5039006;28;20045;-77
2023/10/06 04:25:37;;;;;;;29.67;12.27;;;;;;;;;;5039110;28;20045;-80
2023/10/06 04:28:08;;;;;;;36.10;13.65;;;;;;;;;;5021081;28;20050;-79
2023/10/06 04:30:43;;;;;;;42.17;13.05;;;;;;;;;;5015045;28;20125;-78
2023/10/06 04:33:10;;;;;;;30.58;11.93;;;;;;;;;;5024238;28;20033;-78
2023/10/06 04:35:47;;;;;;;25.38;11.52;;;;;;;;;;5017249;28;20026;-79
2023/10/06 04:38:13;;;;;;;27.23;10.98;;;;;;;;;;5039078;28;20429;-81
2023/10/06 04:40:42;;;;;;;264.73;20.95;;;;;;;;;;5027490;28;20037;-79
2023/10/06 04:43:08;;;;;;;44.22;12.02;;;;;;;;;;5023887;28;20038;-77
2023/10/06 04:45:33;;;;;;;242.27;20.60;;;;;;;;;;5039749;28;20026;-78
2023/10/06 04:48:00;;;;;;;178.05;15.77;;;;;;;;;;5021808;28;20386;-78
2023/10/06 04:50:29;;;;;;;16.92;10.20;;;;;;;;;;5022769;28;20118;-78
2023/10/06 04:52:55;;;;;;;117.30;13.88;;;;;;;;;;5036982;28;20036;-78
2023/10/06 04:55:21;;;;;;;85.10;12.80;;;;;;;;;;5040163;28;20464;-78
2023/10/06 04:57:47;;;;;;;69.90;10.93;;;;;;;;;;5024223;28;20080;-78
2023/10/06 05:00:14;;;;;;;81.70;11.60;;;;;;;;;;5033759;28;20042;-78
2023/10/06 05:02:43;;;;;;;16.02;9.02;;;;;;;;;;5017600;28;20060;-78
2023/10/06 05:05:21;;;;;;;23.80;10.48;;;;;;;;;;5034516;28;20037;-77
2023/10/06 05:07:48;;;;;;;35.08;12.15;;;;;;;;;;5037391;28;20485;-78
2023/10/06 05:10:16;;;;;;;64.40;13.25;;;;;;;;;;5020890;28;20049;-78
2023/10/06 05:12:42;;;;;;;28.15;15.30;;;;;;;;;;5019417;28;20518;-79
2023/10/06 05:15:09;;;;;;;67.55;14.07;;;;;;;;;;5036369;28;20025;-78
2023/10/06 05:17:35;;;;;;;46.45;10.20;;;;;;;;;;5030404;28;20018;-78
2023/10/06 05:20:01;;;;;;;18.40;10.40;;;;;;;;;;5020936;28;20038;-79
2023/10/06 05:22:26;;;;;;;51.17;11.05;;;;;;;;;;5020679;28;20539;-78
2023/10/06 05:24:52;;;;;;;87.88;13.43;;;;;;;;;;5035718;28;20057;-78
2023/10/06 05:27:19;;;;;;;313.10;24.98;;;;;;;;;;5021191;28;20040;-79
2023/10/06 05:29:45;;;;;;;22.38;10.80;;;;;;;;;;5030011;28;20017;-79
2023/10/06 05:32:11;;;;;;;115.65;12.55;;;;;;;;;;5020694;28;20042;-79
2023/10/06 05:34:40;;;;;;;215.93;17.75;;;;;;;;;;5033432;28;20034;-79
2023/10/06 05:37:08;;;;;;;233.98;19.35;;;;;;;;;;5015224;28;20426;-79
2023/10/06 05:39:34;;;;;;;39.20;13.15;;;;;;;;;;5017808;28;20029;-79
2023/10/06 05:42:00;;;;;;;346.95;28.13;;;;;;;;;;5034344;28;20563;-79
2023/10/06 05:44:25;;;;;;;23.02;11.63;;;;;;;;;;5033627;28;20116;-78
2023/10/06 05:46:51;;;;;;;387.05;26.48;;;;;;;;;;5018680;28;20128;-79
2023/10/06 05:49:21;;;;;;;482.90;32.97;;;;;;;;;;5034271;28;20034;-79
2023/10/06 05:51:49;;;;;;;21.65;9.30;;;;;;;;;;5035462;28;20093;-79
2023/10/06 05:54:21;;;;;;;1156.45;71.18;;;;;;;;;;5021295;28;20075;-80
2023/10/06 05:56:53;;;;;;;90.93;11.82;;;;;;;;;;5017233;28;20033;-79
2023/10/06 05:59:19;;;;;;;57.03;11.13;;;;;;;;;;5017198;28;20029;-79
2023/10/06 06:01:46;;;;;;;21.20;9.73;;;;;;;;;;5020046;28;20034;-79
2023/10/06 06:04:12;;;;;;;28.58;9.23;;;;;;;;;;5036566;28;20095;-78
2023/10/06 06:06:37;;;;;;;181.43;15.88;;;;;;;;;;5015607;28;20037;-79
2023/10/06 06:09:13;;;;;;;1277.18;70.32;;;;;;;;;;5033553;28;20026;-79
2023/10/06 06:11:39;;;;;;;195.35;15.55;;;;;;;;;;5015171;28;20037;-79
2023/10/06 06:14:05;;;;;;;21.17;8.18;;;;;;;;;;5013712;28;20052;-78
2023/10/06 06:16:31;;;;;;;216.93;15.75;;;;;;;;;;5013047;28;20552;-78
2023/10/06 06:18:56;;;;;;;1816.28;112.07;;;;;;;;;;5026987;28;20042;-78
2023/10/06 06:21:24;;;;;;;548.17;32.00;;;;;;;;;;5027594;28;20041;-79
2023/10/06 06:23:50;;;;;;;30.10;8.52;;;;;;;;;;5033284;28;20045;-77
2023/10/06 06:26:17;;;;;;;61.78;9.55;;;;;;;;;;5031388;28;20053;-79
2023/10/06 06:28:43;;;;;;;10.00;6.50;;;;;;;;;;5027924;28;20166;-78
2023/10/06 06:31:16;;;;;;;9.35;6.75;;;;;;;;;;5031612;28;20042;-79
2023/10/06 06:33:42;;;;;;;23.20;7.80;;;;;;;;;;5030013;28;20057;-78
2023/10/06 06:36:08;;;;;;;12.70;7.40;;;;;;;;;;5025185;28;20385;-79
2023/10/06 06:38:39;;;;;;;8.02;6.47;;;;;;;;;;5032704;28;20052;-79
2023/10/06 06:41:08;;;;;;;9.40;6.90;;;;;;;;;;5014972;28;20053;-79
2023/10/06 06:43:33;;;;;;;9.57;6.45;;;;;;;;;;5009057;28;20406;-79
2023/10/06 06:45:58;;;;;;;8.93;6.22;;;;;;;;;;5027068;28;20121;-79
2023/10/06 06:48:24;;;;;;;6.55;5.80;;;;;;;;;;5014707;28;20508;-79
2023/10/06 06:50:49;;;;;;;10.57;5.80;;;;;;;;;;5029363;28;20080;-79
2023/10/06 06:53:18;;;;;;;8.65;5.72;;;;;;;;;;5014133;28;20033;-79
2023/10/06 06:55:44;;;;;;;6.97;5.20;;;;;;;;;;5029732;28;20030;-79
2023/10/06 06:58:16;;;;;;;6.57;5.70;;;;;;;;;;5029771;28;20528;-79
2023/10/06 07:00:41;;;;;;;8.05;4.80;;;;;;;;;;5031912;28;20037;-79
2023/10/06 07:03:07;;;;;;;6.38;4.85;;;;;;;;;;5017012;28;20051;-79
2023/10/06 07:05:34;;;;;;;4.97;4.45;;;;;;;;;;5025241;28;20541;-80
2023/10/06 07:08:03;;;;;;;5.68;4.60;;;;;;;;;;5034654;28;20048;-80
2023/10/06 07:10:29;;;;;;;8.70;5.05;;;;;;;;;;5030137;28;20033;-80
2023/10/06 07:12:54;;;;;;;5.18;4.35;;;;;;;;;;5029920;28;20520;-79
2023/10/06 07:15:21;;;;;;;5.28;4.30;;;;;;;;;;5019061;28;20029;-79
2023/10/06 07:17:51;;;;;;;8.18;4.90;;;;;;;;;;5029712;28;20028;-80
2023/10/06 07:20:27;;;;;;;6.25;4.88;;;;;;;;;;5027105;28;20038;-79
2023/10/06 07:22:54;;;;;;;6.72;4.40;;;;;;;;;;5030755;28;20037;-79
2023/10/06 07:25:20;;;;;;;8.27;4.70;;;;;;;;;;5031072;28;20072;-80
2023/10/06 07:27:47;;;;;;;7.43;5.03;;;;;;;;;;5032985;28;20564;-81
2023/10/06 07:30:16;;;;;;;6.75;4.90;;;;;;;;;;5041079;28;20042;-81
2023/10/06 07:32:46;;;;;;;11.93;4.70;;;;;;;;;;5018030;28;20469;-81
2023/10/06 07:35:17;;;;;;;6.53;4.50;;;;;;;;;;5003255;28;20095;-78
2023/10/06 07:37:44;;;;;;;6.05;4.30;;;;;;;;;;5033419;28;20042;-79
2023/10/06 07:40:14;;;;;;;4.57;3.90;;;;;;;;;;5019657;28;20563;-79
2023/10/06 07:42:44;;;;;;;4.18;3.70;;;;;;;;;;5031133;28;20029;-79
2023/10/06 07:45:10;;;;;;;5.68;4.00;;;;;;;;;;5033541;28;20036;-79
2023/10/06 07:47:36;;;;;;;4.20;3.80;;;;;;;;;;5022226;28;20437;-79
2023/10/06 07:50:05;;;;;;;4.97;4.03;;;;;;;;;;5016541;28;20026;-78
2023/10/06 07:52:31;;;;;;;6.07;4.30;;;;;;;;;;5016625;28;20060;-79
2023/10/06 07:54:56;;;;;;;9.30;4.40;;;;;;;;;;4999599;28;20034;-78
2023/10/06 07:57:22;;;;;;;7.60;4.05;;;;;;;;;;5012273;28;20116;-76
2023/10/06 07:59:47;;;;;;;5.97;3.80;;;;;;;;;;5032489;28;20493;-77
2023/10/06 08:02:13;;;;;;;5.65;4.00;;;;;;;;;;5013458;28;20041;-77
2023/10/06 08:04:38;;;;;;;6.78;4.22;;;;;;;;;;5014062;28;20030;-76
2023/10/06 08:07:04;;;;;;;5.10;3.67;;;;;;;;;;5031561;28;20037;-75
2023/10/06 08:09:32;;;;;;;10.90;4.13;;;;;;;;;;5029763;28;20029;-76
2023/10/06 08:11:58;;;;;;;7.15;4.55;;;;;;;;;;5008406;28;20045;-76
2023/10/06 08:14:24;;;;;;;7.22;4.00;;;;;;;;;;5025379;28;20033;-77
2023/10/06 08:16:50;;;;;;;7.85;3.97;;;;;;;;;;5030327;28;20037;-76
2023/10/06 08:19:15;;;;;;;3.90;3.25;;;;;;;;;;5032985;28;20456;-76
2023/10/06 08:21:41;;;;;;;4.05;3.53;;;;;;;;;;5016208;28;20034;-76
2023/10/06 08:24:07;;;;;;;5.47;3.40;;;;;;;;;;5032729;28;20402;-77
2023/10/06 08:26:33;;;;;;;5.72;3.65;;;;;;;;;;5033803;28;20029;-76
2023/10/06 08:28:59;;;;;;;5.47;3.63;;;;;;;;;;5015514;28;20041;-77
2023/10/06 08:31:26;;;;;;;4.63;3.50;;;;;;;;;;5013854;28;20030;-77
2023/10/06 08:33:51;;;;;;;6.43;3.72;;;;;;;;;;5015989;28;20049;-77
2023/10/06 08:36:17;;;;;;;4.97;3.40;;;;;;;;;;5016125;28;20053;-76
2023/10/06 08:38:46;;;;;;;8.82;4.03;;;;;;;;;;5016471;28;20347;-76
2023/10/06 08:41:15;;;;;;;12.45;4.07;;;;;;;;;;5015989;28;20034;-77
2023/10/06 08:43:42;;;;;;;9.02;4.32;;;;;;;;;;5016008;28;20052;-77
2023/10/06 08:46:07;;;;;;;7.30;4.75;;;;;;;;;;5014008;28;20494;-77
2023/10/06 08:48:35;;;;;;;8.27;4.85;;;;;;;;;;5017059;28;20053;-77
2023/10/06 08:51:07;;;;;;;11.32;4.45;;;;;;;;;;5014433;28;20468;-77
2023/10/06 08:53:37;;;;;;;12.27;4.80;;;;;;;;;;5014341;28;20072;-77
2023/10/06 08:56:03;;;;;;;6.03;4.28;;;;;;;;;;5015243;28;20042;-77
2023/10/06 08:58:29;;;;;;;10.82;5.57;;;;;;;;;;5015081;28;20029;-76
2023/10/06 09:00:55;;;;;;;7.68;5.18;;;;;;;;;;5016224;28;20060;-75
2023/10/06 09:03:21;;;;;;;8.32;5.32;;;;;;;;;;5013897;28;20064;-76
2023/10/06 09:05:46;;;;;;;6.35;4.85;;;;;;;;;;5015869;28;20026;-77
2023/10/06 09:08:21;;;;;;;7.80;4.35;;;;;;;;;;5014892;28;20081;-77
2023/10/06 09:10:51;;;;;;;8.50;5.63;;;;;;;;;;5015587;28;20057;-77
2023/10/06 09:13:21;;;;;;;8.45;5.05;;;;;;;;;;5014846;28;20034;-77
2023/10/06 09:15:59;;;;;;;10.27;5.25;;;;;;;;;;5018413;28;20107;-77
2023/10/06 09:18:28;;;;;;;9.43;5.72;;;;;;;;;;5015157;28;20037;-77
2023/10/06 09:20:56;;;;;;;11.73;5.50;;;;;;;;;;5014334;28;20036;-77
2023/10/06 09:23:33;;;;;;;11.30;5.30;;;;;;;;;;5015041;28;20034;-77
2023/10/06 09:26:00;;;;;;;7.00;4.80;;;;;;;;;;5013369;28;20046;-76
2023/10/06 09:28:26;;;;;;;14.88;6.05;;;;;;;;;;5015109;28;20401;-77
2023/10/06 09:30:57;;;;;;;8.27;5.47;;;;;;;;;;5013687;28;20038;-77
2023/10/06 09:33:41;;;;;;;8.95;5.22;;;;;;;;;;5015168;28;20144;-76
2023/10/06 09:36:09;;;;;;;8.93;4.85;;;;;;;;;;5014674;28;20123;-77
2023/10/06 09:38:39;;;;;;;9.93;4.93;;;;;;;;;;5015175;28;20105;-75
2023/10/06 09:41:07;;;;;;;7.25;4.70;;;;;;;;;;5013101;28;20041;-76
2023/10/06 09:43:40;;;;;;;8.73;5.15;;;;;;;;;;5013036;28;20061;-77
2023/10/06 09:46:16;;;;;;;15.95;4.63;;;;;;;;;;5014483;28;20030;-77
2023/10/06 09:48:45;;;;;;;7.18;4.18;;;;;;;;;;5014621;28;20030;-77
2023/10/06 09:51:12;;;;;;;6.32;4.53;;;;;;;;;;5014615;28;20402;-77
2023/10/06 09:53:39;;;;;;;6.60;4.10;;;;;;;;;;5014873;28;20026;-77
2023/10/06 09:56:12;;;;;;;7.07;4.28;;;;;;;;;;5014298;28;20046;-77
2023/10/06 09:58:47;;;;;;;7.20;4.17;;;;;;;;;;5014491;28;20429;-76
2023/10/06 10:01:20;;;;;;;10.88;4.15;;;;;;;;;;5012065;28;20525;-77
2023/10/06 10:03:47;;;;;;;6.30;4.00;;;;;;;;;;5013506;28;20135;-76
2023/10/06 10:06:16;;;;;;;8.95;4.28;;;;;;;;;;5014962;28;20034;-76
2023/10/06 10:08:41;;;;;;;8.32;3.60;;;;;;;;;;5014288;28;20513;-77
2023/10/06 10:11:15;;;;;;;6.38;4.03;;;;;;;;;;5013931;28;20030;-77
2023/10/06 10:14:18;;;;;;;8.50;4.20;;;;;;;;;;5011109;28;20038;-76
2023/10/06 10:16:59;;;;;;;6.43;3.90;;;;;;;;;;5010829;28;20034;-76
2023/10/06 10:19:27;;;;;;;6.63;4.00;;;;;;;;;;5011077;28;20367;-76
2023/10/06 10:21:58;;;;;;;5.80;4.28;;;;;;;;;;5009795;28;20037;-76
2023/10/06 10:24:25;;;;;;;12.10;4.32;;;;;;;;;;5010573;28;20049;-75
2023/10/06 10:26:52;;;;;;;7.78;4.18;;;;;;;;;;5009813;28;20168;-76
2023/10/06 10:29:28;;;;;;;8.13;3.70;;;;;;;;;;5010829;28;20364;-75
2023/10/06 10:32:25;;;;;;;7.00;3.97;;;;;;;;;;5010683;28;20038;-76
2023/10/06 10:35:12;;;;;;;9.85;5.07;;;;;;;;;;4968990;28;20037;-77
2023/10/06 10:37:57;;;;;;;10.80;4.38;;;;;;;;;;5014955;28;20033;-77
2023/10/06 10:40:28;;;;;;;5.43;4.10;;;;;;;;;;5011978;28;20124;-78
2023/10/06 10:43:00;;;;;;;7.55;4.20;;;;;;;;;;5015643;28;20034;-78
2023/10/06 10:45:30;;;;;;;8.25;4.80;;;;;;;;;;5016573;28;20056;-77
2023/10/06 10:47:59;;;;;;;10.05;4.70;;;;;;;;;;5013212;28;20029;-77
2023/10/06 10:50:57;;;;;;;7.20;4.05;;;;;;;;;;5010337;28;20091;-75
2023/10/06 10:53:23;;;;;;;12.70;5.22;;;;;;;;;;5010630;28;20406;-76
2023/10/06 10:55:50;;;;;;;6.40;4.32;;;;;;;;;;5010565;28;20034;-75
2023/10/06 10:58:53;;;;;;;8.68;4.45;;;;;;;;;;5010160;28;20053;-77
2023/10/06 11:01:36;;;;;;;6.65;4.25;;;;;;;;;;5010035;28;20058;-76
2023/10/06 11:04:14;;;;;;;7.00;4.45;;;;;;;;;;5008627;28;20536;-75
2023/10/06 11:06:41;;;;;;;10.20;4.53;;;;;;;;;;5008686;28;20041;-76
2023/10/06 11:09:36;;;;;;;8.40;4.32;;;;;;;;;;5008704;28;20510;-76
2023/10/06 11:12:09;;;;;;;6.80;4.22;;;;;;;;;;5010223;28;20490;-76
2023/10/06 11:14:40;;;;;;;10.65;4.55;;;;;;;;;;5010035;28;20053;-76
2023/10/06 11:17:07;;;;;;;8.00;4.50;;;;;;;;;;5010173;28;20038;-77
2023/10/06 11:19:33;;;;;;;7.32;4.75;;;;;;;;;;5008434;28;20096;-76
2023/10/06 11:22:13;;;;;;;7.38;4.45;;;;;;;;;;5010079;28;20034;-77
2023/10/06 11:24:39;;;;;;;7.40;4.28;;;;;;;;;;5008510;28;20564;-76
2023/10/06 11:27:16;;;;;;;10.13;4.75;;;;;;;;;;5009673;28;20057;-76
2023/10/06 11:29:42;;;;;;;7.70;4.25;;;;;;;;;;5010288;28;20545;-76
2023/10/06 11:32:08;;;;;;;8.70;4.30;;;;;;;;;;5008569;28;20072;-76
2023/10/06 11:34:34;;;;;;;8.75;4.65;;;;;;;;;;5011567;28;20034;-76
2023/10/06 11:37:01;;;;;;;7.13;4.38;;;;;;;;;;5012582;28;20033;-76
2023/10/06 11:39:29;;;;;;;12.15;4.95;;;;;;;;;;5012411;28;20030;-76
2023/10/06 11:42:25;;;;;;;6.18;4.20;;;;;;;;;;5012267;28;20033;-77
2023/10/06 11:44:54;;;;;;;8.43;4.82;;;;;;;;;;5011908;28;20117;-76
2023/10/06 11:47:26;;;;;;;7.65;4.32;;;;;;;;;;5011852;28;20065;-76
2023/10/06 11:49:55;;;;;;;7.57;4.75;;;;;;;;;;5012163;28;20030;-75
2023/10/06 11:52:20;;;;;;;6.03;4.10;;;;;;;;;;5011967;28;20038;-77
2023/10/06 11:54:46;;;;;;;6.70;4.07;;;;;;;;;;5015730;28;20080;-77
2023/10/06 11:57:13;;;;;;;6.93;4.00;;;;;;;;;;5015639;28;20026;-77
2023/10/06 11:59:48;;;;;;;7.68;4.38;;;;;;;;;;5015879;28;20055;-78
2023/10/06 12:02:13;;;;;;;9.43;4.28;;;;;;;;;;5015181;28;20069;-77
2023/10/06 12:04:39;;;;;;;7.50;3.92;;;;;;;;;;5015735;28;20038;-77
2023/10/06 12:07:04;;;;;;;6.93;3.75;;;;;;;;;;5014695;28;20506;-76
2023/10/06 12:09:29;;;;;;;6.72;3.33;;;;;;;;;;5015122;28;20034;-77
2023/10/06 12:11:59;;;;;;;5.38;3.33;;;;;;;;;;5014267;28;20018;-77
2023/10/06 12:14:27;;;;;;;6.15;3.40;;;;;;;;;;5014349;28;20049;-77
2023/10/06 12:16:54;;;;;;;11.07;3.58;;;;;;;;;;5015777;28;20445;-77
2023/10/06 12:19:21;;;;;;;4.20;2.78;;;;;;;;;;5015193;28;20403;-77
2023/10/06 12:21:47;;;;;;;5.18;2.97;;;;;;;;;;5015437;28;20357;-75
2023/10/06 12:24:13;;;;;;;4.53;3.08;;;;;;;;;;5014248;28;20482;-77
2023/10/06 12:26:39;;;;;;;5.22;3.28;;;;;;;;;;5015947;28;20105;-77
2023/10/06 12:29:05;;;;;;;6.22;3.20;;;;;;;;;;5015225;28;20034;-77
2023/10/06 12:31:30;;;;;;;7.45;3.60;;;;;;;;;;5015420;28;20113;-77
2023/10/06 12:33:56;;;;;;;4.45;3.00;;;;;;;;;;5015518;28;20477;-77
2023/10/06 12:36:22;;;;;;;6.13;3.35;;;;;;;;;;5013937;28;20371;-77
2023/10/06 12:38:47;;;;;;;7.15;3.50;;;;;;;;;;5016414;28;20026;-77
2023/10/06 12:41:13;;;;;;;5.47;3.10;;;;;;;;;;5015205;28;20094;-77
2023/10/06 12:43:38;;;;;;;6.18;3.08;;;;;;;;;;5015885;28;20038;-77
2023/10/06 12:46:04;;;;;;;6.90;3.20;;;;;;;;;;5015070;28;20034;-77
2023/10/06 12:48:31;;;;;;;6.85;3.42;;;;;;;;;;5014992;28;20132;-77
2023/10/06 12:50:57;;;;;;;8.52;3.08;;;;;;;;;;5015875;28;20071;-77
2023/10/06 12:53:23;;;;;;;7.57;3.00;;;;;;;;;;5015821;28;20082;-77
2023/10/06 12:55:56;;;;;;;4.90;3.00;;;;;;;;;;5015890;28;20045;-77
2023/10/06 12:58:22;;;;;;;5.03;3.10;;;;;;;;;;5015681;28;20049;-77
2023/10/06 13:00:47;;;;;;;4.15;3.08;;;;;;;;;;5014230;28;20033;-78
2023/10/06 13:03:15;;;;;;;8.57;3.55;;;;;;;;;;5015617;28;20033;-77
2023/10/06 13:05:48;;;;;;;4.88;3.03;;;;;;;;;;5014616;28;20026;-77
2023/10/06 13:08:17;;;;;;;6.50;3.40;;;;;;;;;;5015275;28;20121;-78
2023/10/06 13:10:46;;;;;;;5.45;3.20;;;;;;;;;;5015630;28;20477;-77
2023/10/06 13:13:12;;;;;;;6.45;3.35;;;;;;;;;;5012759;28;20127;-77
2023/10/06 13:15:40;;;;;;;4.03;3.17;;;;;;;;;;5012676;28;20030;-77
2023/10/06 13:18:08;;;;;;;6.00;2.85;;;;;;;;;;5013264;28;20490;-77
2023/10/06 13:20:34;;;;;;;7.57;3.33;;;;;;;;;;5014330;28;20113;-77
2023/10/06 13:22:59;;;;;;;7.15;3.30;;;;;;;;;;5013522;28;20053;-76
2023/10/06 13:25:27;;;;;;;5.43;2.65;;;;;;;;;;5014547;28;20030;-76
2023/10/06 13:27:53;;;;;;;4.85;3.38;;;;;;;;;;5013759;28;20046;-76
2023/10/06 13:30:19;;;;;;;5.60;3.28;;;;;;;;;;5014397;28;20040;-77
2023/10/06 13:32:48;;;;;;;3.97;3.20;;;;;;;;;;5015561;28;20101;-77
2023/10/06 13:35:19;;;;;;;5.10;3.47;;;;;;;;;;5014590;28;20042;-77
2023/10/06 13:37:48;;;;;;;5.13;3.17;;;;;;;;;;5015146;28;20080;-77
2023/10/06 13:40:15;;;;;;;3.80;3.10;;;;;;;;;;5014839;28;20038;-77
2023/10/06 13:42:45;;;;;;;6.82;3.40;;;;;;;;;;5013705;28;20319;-77
2023/10/06 13:45:22;;;;;;;3.58;2.67;;;;;;;;;;5013097;28;20057;-76
2023/10/06 13:47:50;;;;;;;4.43;3.22;;;;;;;;;;5015060;28;20029;-76
2023/10/06 13:50:19;;;;;;;6.57;3.65;;;;;;;;;;5013271;28;20034;-77
2023/10/06 13:52:46;;;;;;;5.22;3.45;;;;;;;;;;5014172;28;20042;-76
2023/10/06 13:55:12;;;;;;;4.90;3.28;;;;;;;;;;5014108;28;20113;-76
2023/10/06 13:57:39;;;;;;;6.93;3.13;;;;;;;;;;5012740;28;20081;-75
2023/10/06 14:00:09;;;;;;;4.30;3.08;;;;;;;;;;5015511;28;20088;-76
2023/10/06 14:02:36;;;;;;;7.68;3.00;;;;;;;;;;5014507;28;20030;-77
2023/10/06 14:05:01;;;;;;;5.38;3.10;;;;;;;;;;5013889;28;20096;-77
2023/10/06 14:07:27;;;;;;;8.85;3.40;;;;;;;;;;5012393;28;20449;-76
2023/10/06 14:09:54;;;;;;;5.32;3.08;;;;;;;;;;5013270;28;20026;-76
2023/10/06 14:12:20;;;;;;;4.88;3.30;;;;;;;;;;5012856;28;20064;-77
2023/10/06 14:17:19;;;;;;;7.13;2.97;;;;;;;;;;5014527;28;20403;-75
2023/10/06 14:19:46;;;;;;;;;;;;;;;;;;5015288;28;20040;-75
2023/10/06 14:22:11;;;;;;;6.38;3.30;;;;;;;;;;5014174;28;19976;-77
2023/10/06 14:24:39;;;;;;;10.38;3.38;;;;;;;;;;5013002;28;20091;-78
2023/10/06 14:27:05;;;;;;;6.70;3.72;;;;;;;;;;5014004;28;20033;-78
2023/10/06 14:29:31;;;;;;;5.25;3.15;;;;;;;;;;5014344;28;20034;-77
2023/10/06 14:32:11;;;;;;;8.50;3.75;;;;;;;;;;5014163;28;20128;-77
2023/10/06 14:34:56;;;;;;;5.75;3.20;;;;;;;;;;5013788;28;20037;-77
2023/10/06 14:37:38;;;;;;;6.32;3.03;;;;;;;;;;5013756;28;20091;-75
2023/10/06 14:48:17;;;;;;;6.32;2.92;;;;;;;;;;5015592;28;20052;-78
2023/10/06 14:50:42;;;;;;;3.20;2.60;;;;;;;;;;5015705;28;20026;-76
2023/10/06 14:53:10;;;;;;;7.00;2.88;;;;;;;;;;5015953;28;20494;-78
2023/10/06 14:55:38;;;;;;;3.30;2.80;;;;;;;;;;5016010;28;20121;-78
2023/10/06 14:58:04;;;;;;;2.70;2.47;;;;;;;;;;5016068;28;20087;-77
2023/10/06 15:00:32;;;;;;;10.85;3.28;;;;;;;;;;5016030;28;20037;-78